createdAt,value
2022-12-17T00:00:07.301Z,100.00
2022-12-17T00:03:19.545Z,100.00
2022-12-17T00:06:06.608Z,100.00
2022-12-17T00:08:53.537Z,100.00
2022-12-17T00:11:40.380Z,100.00
2022-12-17T00:14:27.097Z,100.00
2022-12-17T00:17:13.846Z,100.00
2022-12-17T00:20:00.603Z,100.00
2022-12-17T00:22:47.577Z,100.00
2022-12-17T00:25:34.932Z,100.00
2022-12-17T00:28:22.154Z,100.00
2022-12-17T00:31:12.258Z,100.00
2022-12-17T00:33:59.152Z,100.00
2022-12-17T00:36:47.157Z,100.00
2022-12-17T00:39:34.046Z,100.00
2022-12-17T00:42:21.022Z,100.00
2022-12-17T00:45:07.959Z,100.00
2022-12-17T00:47:55.065Z,100.00
2022-12-17T00:50:43.692Z,100.00
2022-12-17T00:53:30.480Z,100.00
2022-12-17T00:56:17.382Z,100.00
2022-12-17T00:59:04.112Z,100.00
2022-12-17T01:01:51.063Z,100.00
2022-12-17T01:04:39.372Z,100.00
2022-12-17T01:07:26.483Z,100.00
2022-12-17T01:10:13.315Z,100.00
2022-12-17T01:13:00.280Z,100.00
2022-12-17T01:15:47.081Z,100.00
2022-12-17T01:18:38.420Z,100.00
2022-12-17T01:21:25.141Z,100.00
2022-12-17T01:24:13.509Z,100.00
2022-12-17T01:27:00.688Z,100.00
2022-12-17T01:29:47.336Z,100.00
2022-12-17T01:32:35.359Z,100.00
2022-12-17T01:35:22.638Z,100.00
2022-12-17T01:38:10.477Z,100.00
2022-12-17T01:40:57.092Z,100.00
2022-12-17T01:43:56.411Z,100.00
2022-12-17T01:46:47.553Z,100.00
2022-12-17T01:49:36.835Z,100.00
2022-12-17T01:52:25.442Z,100.00
2022-12-17T01:55:12.781Z,100.00
2022-12-17T01:57:59.499Z,100.00
2022-12-17T02:00:46.507Z,100.00
2022-12-17T02:03:35.983Z,100.00
2022-12-17T02:06:41.191Z,100.00
2022-12-17T02:10:13.422Z,100.00
2022-12-17T02:13:10.131Z,100.00
2022-12-17T02:16:05.634Z,100.00
2022-12-17T02:19:03.922Z,100.00
2022-12-17T02:21:54.607Z,100.00
2022-12-17T02:24:54.832Z,100.00
2022-12-17T02:27:43.441Z,100.00
2022-12-17T02:30:31.054Z,100.00
2022-12-17T02:33:19.872Z,100.00
2022-12-17T02:36:18.920Z,100.00
2022-12-17T02:39:05.857Z,100.00
2022-12-17T02:42:08.540Z,100.00
2022-12-17T02:44:57.204Z,100.00
2022-12-17T02:47:44.999Z,100.00
2022-12-17T02:50:32.658Z,100.00
2022-12-17T02:53:21.998Z,100.00
2022-12-17T02:56:08.773Z,100.00
2022-12-17T02:58:57.258Z,100.00
2022-12-17T03:02:04.182Z,100.00
2022-12-17T03:04:51.308Z,100.00
2022-12-17T03:07:38.303Z,100.00
2022-12-17T03:10:25.797Z,100.00
2022-12-17T03:13:12.744Z,100.00
2022-12-17T03:15:59.614Z,100.00
2022-12-17T03:18:46.340Z,100.00
2022-12-17T03:21:33.365Z,100.00
2022-12-17T03:24:20.188Z,100.00
2022-12-17T03:27:06.879Z,100.00
2022-12-17T03:29:53.503Z,100.00
2022-12-17T03:32:40.596Z,100.00
2022-12-17T03:35:27.600Z,100.00
2022-12-17T03:38:14.315Z,100.00
2022-12-17T03:41:01.003Z,100.00
2022-12-17T03:43:48.101Z,100.00
2022-12-17T03:46:35.270Z,100.00
2022-12-17T03:49:22.004Z,100.00
2022-12-17T03:52:09.172Z,100.00
2022-12-17T03:54:56.184Z,100.00
2022-12-17T03:57:43.116Z,100.00
2022-12-17T04:00:30.260Z,100.00
2022-12-17T04:03:17.425Z,100.00
2022-12-17T04:06:04.462Z,100.00
2022-12-17T04:08:51.253Z,100.00
2022-12-17T04:11:38.092Z,100.00
2022-12-17T04:14:25.015Z,100.00
2022-12-17T04:17:11.744Z,100.00
2022-12-17T04:19:58.646Z,100.00
2022-12-17T04:22:45.743Z,100.00
2022-12-17T04:25:32.581Z,100.00
2022-12-17T04:28:19.620Z,100.00
2022-12-17T04:31:06.761Z,100.00
2022-12-17T04:33:53.588Z,100.00
2022-12-17T04:36:40.103Z,100.00
2022-12-17T04:39:28.448Z,100.00
2022-12-17T04:42:15.066Z,100.00
2022-12-17T04:45:01.956Z,100.00
2022-12-17T04:47:48.725Z,100.00
2022-12-17T04:50:36.080Z,100.00
2022-12-17T04:53:25.280Z,100.00
2022-12-17T04:56:15.630Z,100.00
2022-12-17T04:59:02.641Z,100.00
2022-12-17T05:01:49.910Z,100.00
2022-12-17T05:04:36.633Z,100.00
2022-12-17T05:07:23.701Z,100.00
2022-12-17T05:10:10.406Z,100.00
2022-12-17T05:12:57.327Z,100.00
2022-12-17T05:15:48.330Z,100.00
2022-12-17T05:18:38.390Z,100.00
2022-12-17T05:21:28.100Z,100.00
2022-12-17T05:24:19.341Z,100.00
2022-12-17T05:27:06.629Z,100.00
2022-12-17T05:29:53.690Z,100.00
2022-12-17T05:32:40.378Z,100.00
2022-12-17T05:35:28.745Z,100.00
2022-12-17T05:38:23.101Z,100.00
2022-12-17T05:41:10.905Z,100.00
2022-12-17T05:43:57.793Z,100.00
2022-12-17T05:46:45.060Z,100.00
2022-12-17T05:49:32.474Z,100.00
2022-12-17T05:52:19.479Z,100.00
2022-12-17T05:55:06.456Z,100.00
2022-12-17T05:57:56.453Z,100.00
2022-12-17T06:00:44.066Z,100.00
2022-12-17T06:03:31.223Z,100.00
2022-12-17T06:06:18.042Z,100.00
2022-12-17T06:09:05.136Z,100.00
2022-12-17T06:11:51.766Z,100.00
2022-12-17T06:14:38.787Z,100.00
2022-12-17T06:17:25.648Z,100.00
2022-12-17T06:20:12.617Z,100.00
2022-12-17T06:22:59.209Z,100.00
2022-12-17T06:25:45.916Z,100.00
2022-12-17T06:28:32.926Z,100.00
2022-12-17T06:31:19.705Z,100.00
2022-12-17T06:34:06.449Z,100.00
2022-12-17T06:36:53.543Z,100.00
2022-12-17T06:39:40.176Z,100.00
2022-12-17T06:42:27.198Z,100.00
2022-12-17T06:45:13.907Z,100.00
2022-12-17T06:48:00.782Z,100.00
2022-12-17T06:50:47.476Z,100.00
2022-12-17T06:53:34.478Z,100.00
2022-12-17T06:56:21.689Z,100.00
2022-12-17T06:59:13.103Z,100.00
2022-12-17T07:01:59.900Z,100.00
2022-12-17T07:04:46.846Z,100.00
2022-12-17T07:07:33.702Z,100.00
2022-12-17T07:10:20.370Z,100.00
2022-12-17T07:13:07.440Z,100.00
2022-12-17T07:15:56.669Z,100.00
2022-12-17T07:18:43.282Z,100.00
2022-12-17T07:21:30.227Z,100.00
2022-12-17T07:24:17.355Z,100.00
2022-12-17T07:27:04.103Z,100.00
2022-12-17T07:29:50.944Z,100.00
2022-12-17T07:32:37.757Z,100.00
2022-12-17T07:35:25.384Z,100.00
2022-12-17T07:38:23.505Z,100.00
2022-12-17T07:41:10.358Z,100.00
2022-12-17T07:43:57.054Z,100.00
2022-12-17T07:46:43.787Z,100.00
2022-12-17T07:49:30.859Z,100.00
2022-12-17T07:52:19.580Z,100.00
2022-12-17T07:55:06.590Z,100.00
2022-12-17T07:57:53.493Z,100.00
2022-12-17T08:00:44.658Z,100.00
2022-12-17T08:03:35.328Z,100.00
2022-12-17T08:06:23.156Z,100.00
2022-12-17T08:09:10.041Z,100.00
2022-12-17T08:11:57.239Z,100.00
2022-12-17T08:14:43.944Z,100.00
2022-12-17T08:17:30.879Z,100.00
2022-12-17T08:20:18.042Z,100.00
2022-12-17T08:23:05.027Z,100.00
2022-12-17T08:25:52.024Z,100.00
2022-12-17T08:28:50.541Z,100.00
2022-12-17T08:31:38.455Z,100.00
2022-12-17T08:34:25.716Z,100.00
2022-12-17T08:37:12.848Z,100.00
2022-12-17T08:39:59.570Z,100.00
2022-12-17T08:42:46.373Z,100.00
2022-12-17T08:45:33.764Z,100.00
2022-12-17T08:48:25.872Z,100.00
2022-12-17T08:51:12.948Z,100.00
2022-12-17T08:53:59.792Z,100.00
2022-12-17T08:56:47.059Z,100.00
2022-12-17T08:59:34.228Z,100.00
2022-12-17T09:02:24.611Z,100.00
2022-12-17T09:05:20.566Z,100.00
2022-12-17T09:08:08.044Z,100.00
2022-12-17T09:10:55.168Z,100.00
2022-12-17T09:13:42.284Z,100.00
2022-12-17T09:16:29.402Z,100.00
2022-12-17T09:19:16.588Z,100.00
2022-12-17T09:22:04.294Z,100.00
2022-12-17T09:24:51.800Z,100.00
2022-12-17T09:27:38.922Z,100.00
2022-12-17T09:30:26.730Z,100.00
2022-12-17T09:33:13.583Z,100.00
2022-12-17T09:36:01.383Z,100.00
2022-12-17T09:38:48.291Z,100.00
2022-12-17T09:41:56.328Z,100.00
2022-12-17T09:45:06.900Z,100.00
2022-12-17T09:48:19.134Z,100.00
2022-12-17T09:51:10.647Z,100.00
2022-12-17T09:54:10.095Z,100.00
2022-12-17T09:56:59.536Z,100.00
2022-12-17T09:59:52.334Z,100.00
2022-12-17T10:02:44.054Z,100.00
2022-12-17T10:05:43.936Z,99.92
2022-12-17T10:08:36.118Z,99.50
2022-12-17T10:11:47.311Z,99.92
2022-12-17T10:14:44.465Z,99.68
2022-12-17T10:17:39.940Z,99.55
2022-12-17T10:20:42.367Z,99.47
2022-12-17T10:23:29.385Z,99.82
2022-12-17T10:26:16.349Z,100.00
2022-12-17T10:29:03.067Z,100.00
2022-12-17T10:31:49.671Z,100.00
2022-12-17T10:34:39.286Z,100.00
2022-12-17T10:37:38.000Z,100.00
2022-12-17T10:40:39.615Z,100.00
2022-12-17T10:43:46.535Z,100.00
2022-12-17T10:46:53.811Z,100.00
2022-12-17T10:49:43.844Z,100.00
2022-12-17T10:52:39.808Z,100.00
2022-12-17T10:55:38.660Z,100.00
2022-12-17T10:58:33.131Z,100.00
2022-12-17T11:01:22.316Z,100.00
2022-12-17T11:04:18.751Z,100.00
2022-12-17T11:07:09.908Z,99.96
2022-12-17T11:10:30.041Z,99.74
2022-12-17T11:13:22.204Z,98.38
2022-12-17T11:16:15.624Z,96.17
2022-12-17T11:19:40.419Z,96.61
2022-12-17T11:22:56.795Z,96.54
2022-12-17T11:26:22.500Z,97.99
2022-12-17T11:29:09.922Z,96.02
2022-12-17T11:32:26.041Z,95.14
2022-12-17T11:35:28.347Z,95.64
2022-12-17T11:38:51.538Z,95.52
2022-12-17T11:41:53.423Z,94.98
2022-12-17T11:44:40.231Z,96.35
2022-12-17T11:47:39.801Z,96.60
2022-12-17T11:50:52.983Z,96.67
2022-12-17T11:54:08.409Z,96.45
2022-12-17T11:57:04.225Z,97.14
2022-12-17T12:00:02.235Z,97.38
2022-12-17T12:03:10.525Z,98.01
2022-12-17T12:06:18.083Z,98.33
2022-12-17T12:09:19.020Z,98.20
2022-12-17T12:12:43.744Z,97.96
2022-12-17T12:15:54.811Z,98.36
2022-12-17T12:19:30.780Z,97.73
2022-12-17T12:22:44.787Z,95.58
2022-12-17T12:25:46.821Z,95.31
2022-12-17T12:28:51.301Z,96.02
2022-12-17T12:32:06.300Z,97.10
2022-12-17T12:34:57.284Z,97.55
2022-12-17T12:37:45.358Z,97.88
2022-12-17T12:40:55.575Z,97.99
2022-12-17T12:43:49.371Z,98.25
2022-12-17T12:47:01.127Z,98.22
2022-12-17T12:50:04.414Z,97.96
2022-12-17T12:52:50.983Z,98.67
2022-12-17T12:55:37.679Z,98.62
2022-12-17T12:58:45.727Z,98.75
2022-12-17T13:01:33.260Z,99.35
2022-12-17T13:04:34.772Z,99.63
2022-12-17T13:07:05.677Z,99.91
2022-12-17T13:09:48.482Z,100.00
2022-12-17T13:12:28.383Z,100.00
2022-12-17T13:15:01.052Z,100.00
2022-12-17T13:17:39.849Z,100.00
2022-12-17T13:20:28.393Z,100.00
2022-12-17T13:23:11.742Z,100.00
2022-12-17T13:25:40.583Z,100.00
2022-12-17T13:28:35.639Z,100.00
2022-12-17T13:31:14.272Z,100.00
2022-12-17T13:34:06.767Z,100.00
2022-12-17T13:37:07.308Z,100.00
2022-12-17T13:39:59.708Z,100.00
2022-12-17T13:42:32.821Z,100.00
2022-12-17T13:45:02.132Z,100.00
2022-12-17T13:47:33.381Z,100.00
2022-12-17T13:50:32.659Z,100.00
2022-12-17T13:52:53.600Z,100.00
2022-12-17T13:55:29.290Z,100.00
2022-12-17T13:57:58.104Z,100.00
2022-12-17T14:00:29.539Z,100.00
2022-12-17T14:02:58.067Z,100.00
2022-12-17T14:05:42.538Z,100.00
2022-12-17T14:08:17.285Z,100.00
2022-12-17T14:10:52.241Z,100.00
2022-12-17T14:13:20.496Z,100.00
2022-12-17T14:15:52.943Z,100.00
2022-12-17T14:18:22.184Z,100.00
2022-12-17T14:20:55.653Z,100.00
2022-12-17T14:23:30.855Z,100.00
2022-12-17T14:26:00.082Z,100.00
2022-12-17T14:28:36.374Z,100.00
2022-12-17T14:34:11.592Z,100.00
2022-12-17T14:36:43.019Z,100.00
2022-12-17T14:39:22.694Z,100.00
2022-12-17T14:42:10.398Z,100.00
2022-12-17T14:44:53.331Z,100.00
2022-12-17T14:47:30.732Z,100.00
2022-12-17T14:50:17.195Z,100.00
2022-12-17T14:52:48.957Z,100.00
2022-12-17T14:55:24.401Z,100.00
2022-12-17T14:57:54.600Z,100.00
2022-12-17T15:00:22.803Z,100.00
2022-12-17T15:02:54.622Z,100.00
2022-12-17T15:05:23.183Z,100.00
2022-12-17T15:07:52.188Z,100.00
2022-12-17T15:10:21.749Z,100.00
2022-12-17T15:12:51.683Z,100.00
2022-12-17T15:15:21.955Z,100.00
2022-12-17T15:17:50.124Z,100.00
2022-12-17T15:20:20.882Z,100.00
2022-12-17T15:22:49.012Z,100.00
2022-12-17T15:25:19.452Z,100.00
2022-12-17T15:27:47.704Z,100.00
2022-12-17T15:30:17.935Z,100.00
2022-12-17T15:32:46.469Z,100.00
2022-12-17T15:35:15.026Z,100.00
2022-12-17T15:37:43.149Z,100.00
2022-12-17T15:40:12.193Z,100.00
2022-12-17T15:43:04.425Z,100.00
2022-12-17T15:45:34.329Z,100.00
2022-12-17T15:48:02.566Z,100.00
2022-12-17T15:50:30.731Z,100.00
2022-12-17T15:52:58.996Z,100.00
2022-12-17T15:55:28.110Z,100.00
2022-12-17T15:57:56.628Z,100.00
2022-12-17T16:00:24.922Z,100.00
2022-12-17T16:02:53.460Z,100.00
2022-12-17T16:05:23.744Z,100.00
2022-12-17T16:07:53.240Z,100.00
2022-12-17T16:10:21.789Z,100.00
2022-12-17T16:12:50.157Z,100.00
2022-12-17T16:15:19.371Z,100.00
2022-12-17T16:17:47.535Z,100.00
2022-12-17T16:20:15.824Z,100.00
2022-12-17T16:22:44.757Z,100.00
2022-12-17T16:25:12.977Z,100.00
2022-12-17T16:27:41.870Z,100.00
2022-12-17T16:30:11.532Z,100.00
2022-12-17T16:32:39.987Z,100.00
2022-12-17T16:35:08.722Z,100.00
2022-12-17T16:37:36.988Z,100.00
2022-12-17T16:40:05.945Z,100.00
2022-12-17T16:42:34.039Z,100.00
2022-12-17T16:45:02.105Z,100.00
2022-12-17T16:47:30.357Z,100.00
2022-12-17T16:49:58.588Z,100.00
2022-12-17T16:52:26.738Z,100.00
2022-12-17T16:54:54.871Z,100.00
2022-12-17T16:57:22.943Z,100.00
2022-12-17T16:59:51.169Z,100.00
2022-12-17T17:02:19.883Z,100.00
2022-12-17T17:04:48.404Z,100.00
2022-12-17T17:07:16.597Z,100.00
2022-12-17T17:09:44.776Z,100.00
2022-12-17T17:12:13.782Z,100.00
2022-12-17T17:14:44.575Z,100.00
2022-12-17T17:17:12.626Z,100.00
2022-12-17T17:19:40.745Z,100.00
2022-12-17T17:22:09.008Z,100.00
2022-12-17T17:24:37.093Z,100.00
2022-12-17T17:27:05.108Z,100.00
2022-12-17T17:29:33.324Z,100.00
2022-12-17T17:32:16.835Z,100.00
2022-12-17T17:34:45.189Z,100.00
2022-12-17T17:37:13.900Z,100.00
2022-12-17T17:39:42.276Z,100.00
2022-12-17T17:42:10.580Z,100.00
2022-12-17T17:44:38.613Z,100.00
2022-12-17T17:47:06.831Z,100.00
2022-12-17T17:49:35.046Z,100.00
2022-12-17T17:52:11.442Z,100.00
2022-12-17T17:54:41.029Z,100.00
2022-12-17T17:57:10.418Z,100.00
2022-12-17T17:59:39.831Z,100.00
2022-12-17T18:02:11.044Z,100.00
2022-12-17T18:04:40.295Z,100.00
2022-12-17T18:07:26.610Z,100.00
2022-12-17T18:09:56.395Z,100.00
2022-12-17T18:12:43.461Z,100.00
2022-12-17T18:15:15.354Z,100.00
2022-12-17T18:17:49.296Z,100.00
2022-12-17T18:20:18.264Z,100.00
2022-12-17T18:22:47.090Z,100.00
2022-12-17T18:25:17.895Z,100.00
2022-12-17T18:27:47.357Z,100.00
2022-12-17T18:30:16.575Z,100.00
2022-12-17T18:32:45.771Z,100.00
2022-12-17T18:35:14.160Z,100.00
2022-12-17T18:37:42.592Z,100.00
2022-12-17T18:40:11.373Z,100.00
2022-12-17T18:42:58.379Z,100.00
2022-12-17T18:45:26.725Z,100.00
2022-12-17T18:47:54.980Z,100.00
2022-12-17T18:50:23.280Z,100.00
2022-12-17T18:52:51.744Z,100.00
2022-12-17T18:55:19.900Z,100.00
2022-12-17T18:57:51.205Z,100.00
2022-12-17T19:00:19.680Z,100.00
2022-12-17T19:02:47.996Z,100.00
2022-12-17T19:05:16.725Z,100.00
2022-12-17T19:07:44.983Z,100.00
2022-12-17T19:10:13.311Z,100.00
2022-12-17T19:12:41.587Z,100.00
2022-12-17T19:15:10.518Z,100.00
2022-12-17T19:17:38.777Z,100.00
2022-12-17T19:20:07.768Z,100.00
2022-12-17T19:22:37.609Z,100.00
2022-12-17T19:25:06.005Z,100.00
2022-12-17T19:27:34.282Z,100.00
2022-12-17T19:30:06.643Z,100.00
2022-12-17T19:32:35.876Z,100.00
2022-12-17T19:35:04.525Z,100.00
2022-12-17T19:37:32.669Z,100.00
2022-12-17T19:40:01.781Z,100.00
2022-12-17T19:42:36.742Z,100.00
2022-12-17T19:45:09.678Z,100.00
2022-12-17T19:47:39.451Z,100.00
2022-12-17T19:50:10.539Z,100.00
2022-12-17T19:52:38.962Z,100.00
2022-12-17T19:55:07.636Z,100.00
2022-12-17T19:57:36.920Z,100.00
2022-12-17T20:00:07.479Z,100.00
2022-12-17T20:02:44.623Z,100.00
2022-12-17T20:05:13.426Z,100.00
2022-12-17T20:07:42.578Z,100.00
2022-12-17T20:10:12.188Z,100.00
2022-12-17T20:12:41.460Z,100.00
2022-12-17T20:15:10.309Z,100.00
2022-12-17T20:17:39.273Z,100.00
2022-12-17T20:20:09.444Z,100.00
2022-12-17T20:22:37.879Z,100.00
2022-12-17T20:25:09.601Z,100.00
2022-12-17T20:27:39.508Z,100.00
2022-12-17T20:30:10.736Z,100.00
2022-12-17T20:32:39.913Z,100.00
2022-12-17T20:35:08.598Z,100.00
2022-12-17T20:37:36.821Z,100.00
2022-12-17T20:40:06.032Z,100.00
2022-12-17T20:42:37.142Z,100.00
2022-12-17T20:45:05.932Z,100.00
2022-12-17T20:47:34.102Z,100.00
2022-12-17T20:50:03.865Z,100.00
2022-12-17T20:52:32.135Z,100.00
2022-12-17T20:55:00.281Z,100.00
2022-12-17T20:57:28.769Z,100.00
2022-12-17T20:59:57.082Z,100.00
2022-12-17T21:02:29.421Z,100.00
2022-12-17T21:04:57.803Z,100.00
2022-12-17T21:07:25.936Z,100.00
2022-12-17T21:09:56.094Z,100.00
2022-12-17T21:12:45.204Z,100.00
2022-12-17T21:15:13.613Z,100.00
2022-12-17T21:17:42.357Z,100.00
2022-12-17T21:20:14.937Z,100.00
2022-12-17T21:22:43.926Z,100.00
2022-12-17T21:25:12.377Z,100.00
2022-12-17T21:27:41.147Z,100.00
2022-12-17T21:30:13.422Z,100.00
2022-12-17T21:32:42.217Z,100.00
2022-12-17T21:35:11.721Z,100.00
2022-12-17T21:37:40.259Z,100.00
2022-12-17T21:40:10.389Z,100.00
2022-12-17T21:42:58.479Z,100.00
2022-12-17T21:45:26.752Z,100.00
2022-12-17T21:47:55.252Z,100.00
2022-12-17T21:50:23.398Z,100.00
2022-12-17T21:52:51.705Z,100.00
2022-12-17T21:55:19.962Z,100.00
2022-12-17T21:57:48.493Z,100.00
2022-12-17T22:00:17.563Z,100.00
2022-12-17T22:02:45.852Z,100.00
2022-12-17T22:05:17.805Z,100.00
2022-12-17T22:08:06.600Z,100.00
2022-12-17T22:10:48.478Z,100.00
2022-12-17T22:13:37.246Z,100.00
2022-12-17T22:16:07.901Z,100.00
2022-12-17T22:18:36.502Z,100.00
2022-12-17T22:21:05.148Z,100.00
2022-12-17T22:23:33.317Z,100.00
2022-12-17T22:26:02.124Z,100.00
2022-12-17T22:28:30.353Z,100.00
2022-12-17T22:31:23.795Z,100.00
2022-12-17T22:34:28.910Z,100.00
2022-12-17T22:39:19.251Z,100.00
2022-12-17T22:44:31.511Z,100.00
2022-12-17T22:44:38.629Z,100.00
2022-12-17T22:45:25.977Z,100.00
2022-12-17T22:47:54.612Z,100.00
2022-12-17T22:50:28.664Z,100.00
2022-12-17T22:53:01.528Z,100.00
2022-12-17T22:55:30.637Z,100.00
2022-12-17T22:57:59.503Z,100.00
2022-12-17T23:00:32.294Z,100.00
2022-12-17T23:03:01.044Z,100.00
2022-12-17T23:05:30.304Z,100.00
2022-12-17T23:07:59.904Z,100.00
2022-12-17T23:10:28.977Z,100.00
2022-12-17T23:12:57.551Z,100.00
2022-12-17T23:15:30.414Z,100.00
2022-12-17T23:18:02.179Z,100.00
2022-12-17T23:20:32.579Z,100.00
2022-12-17T23:23:01.364Z,100.00
2022-12-17T23:25:31.468Z,100.00
2022-12-17T23:28:00.218Z,100.00
2022-12-17T23:30:32.185Z,100.00
2022-12-17T23:33:00.720Z,100.00
2022-12-17T23:35:29.825Z,100.00
2022-12-17T23:37:58.580Z,100.00
2022-12-17T23:40:27.088Z,100.00
2022-12-17T23:42:57.637Z,100.00
2022-12-17T23:45:26.035Z,100.00
2022-12-17T23:47:54.475Z,100.00
2022-12-17T23:50:23.117Z,100.00
2022-12-17T23:52:51.692Z,100.00
2022-12-17T23:55:20.507Z,100.00
2022-12-17T23:57:48.911Z,100.00
